sensor_id;sensor_type;location;lat;lon;timestamp;pressure;altitude;pressure_sealevel;temperature
74485;BMP280;62942;52.462;10.846;2023-11-21T00:00:17;100120;;;
74485;BMP280;62942;52.462;10.846;2023-11-21T00:01:27;100110;;;
74485;BMP280;62942;52.462;10.846;2023-11-21T00:02:27;100110;;;
74485;BMP280;62942;52.462;10.846;2023-11-21T00:03:37;100130;;;
74485;BMP280;62942;52.462;10.846;2023-11-21T00:04:38;100130;;;
74485;BMP280;62942;52.462;10.846;2023-11-21T00:05:47;100130;;;
74485;BMP280;62942;52.462;10.846;2023-11-21T00:06:47;100130;;;
74485;BMP280;62942;52.462;10.846;2023-11-21T00:07:57;100130;;;
74485;BMP280;62942;52.462;10.846;2023-11-21T00:08:57;100130;;;
74485;BMP280;62942;52.462;10.846;2023-11-21T00:09:58;100130;;;
74485;BMP280;62942;52.462;10.846;2023-11-21T00:11:07;100140;;;
74485;BMP280;62942;52.462;10.846;2023-11-21T00:12:07;100140;;;
74485;BMP280;62942;52.462;10.846;2023-11-21T00:13:17;100130;;;
74485;BMP280;62942;52.462;10.846;2023-11-21T00:14:27;100130;;;
74485;BMP280;62942;52.462;10.846;2023-11-21T00:15:38;100120;;;
74485;BMP280;62942;52.462;10.846;2023-11-21T00:16:47;100120;;;
74485;BMP280;62942;52.462;10.846;2023-11-21T00:17:47;100120;;;
74485;BMP280;62942;52.462;10.846;2023-11-21T00:18:57;100130;;;
74485;BMP280;62942;52.462;10.846;2023-11-21T00:19:57;100120;;;
74485;BMP280;62942;52.462;10.846;2023-11-21T00:21:08;100130;;;
74485;BMP280;62942;52.462;10.846;2023-11-21T00:22:19;100140;;;
74485;BMP280;62942;52.462;10.846;2023-11-21T00:23:27;100140;;;
74485;BMP280;62942;52.462;10.846;2023-11-21T00:24:27;100140;;;
74485;BMP280;62942;52.462;10.846;2023-11-21T00:25:28;100140;;;
74485;BMP280;62942;52.462;10.846;2023-11-21T00:26:37;100140;;;
74485;BMP280;62942;52.462;10.846;2023-11-21T00:27:38;100140;;;
74485;BMP280;62942;52.462;10.846;2023-11-21T00:28:47;100140;;;
74485;BMP280;62942;52.462;10.846;2023-11-21T00:29:57;100140;;;
74485;BMP280;62942;52.462;10.846;2023-11-21T00:31:07;100140;;;
74485;BMP280;62942;52.462;10.846;2023-11-21T00:32:17;100140;;;
74485;BMP280;62942;52.462;10.846;2023-11-21T00:33:17;100140;;;
74485;BMP280;62942;52.462;10.846;2023-11-21T00:34:27;100150;;;
74485;BMP280;62942;52.462;10.846;2023-11-21T00:35:37;100150;;;
74485;BMP280;62942;52.462;10.846;2023-11-21T00:36:37;100150;;;
74485;BMP280;62942;52.462;10.846;2023-11-21T00:37:47;100150;;;
74485;BMP280;62942;52.462;10.846;2023-11-21T00:38:47;100150;;;
74485;BMP280;62942;52.462;10.846;2023-11-21T00:39:57;100150;;;
74485;BMP280;62942;52.462;10.846;2023-11-21T00:41:07;100150;;;
74485;BMP280;62942;52.462;10.846;2023-11-21T00:42:17;100150;;;
74485;BMP280;62942;52.462;10.846;2023-11-21T00:43:17;100150;;;
74485;BMP280;62942;52.462;10.846;2023-11-21T00:44:27;100150;;;
74485;BMP280;62942;52.462;10.846;2023-11-21T00:45:27;100160;;;
74485;BMP280;62942;52.462;10.846;2023-11-21T00:46:37;100150;;;
74485;BMP280;62942;52.462;10.846;2023-11-21T00:47:37;100160;;;
74485;BMP280;62942;52.462;10.846;2023-11-21T00:48:47;100160;;;
74485;BMP280;62942;52.462;10.846;2023-11-21T00:49:57;100160;;;
74485;BMP280;62942;52.462;10.846;2023-11-21T00:51:07;100160;;;
74485;BMP280;62942;52.462;10.846;2023-11-21T00:52:17;100160;;;
74485;BMP280;62942;52.462;10.846;2023-11-21T00:53:17;100160;;;
74485;BMP280;62942;52.462;10.846;2023-11-21T00:54:17;100160;;;
74485;BMP280;62942;52.462;10.846;2023-11-21T00:55:27;100160;;;
74485;BMP280;62942;52.462;10.846;2023-11-21T00:56:37;100170;;;
74485;BMP280;62942;52.462;10.846;2023-11-21T00:57:47;100170;;;
74485;BMP280;62942;52.462;10.846;2023-11-21T00:58:57;100170;;;
74485;BMP280;62942;52.462;10.846;2023-11-21T01:00:08;100170;;;
74485;BMP280;62942;52.462;10.846;2023-11-21T01:01:07;100170;;;
74485;BMP280;62942;52.462;10.846;2023-11-21T01:02:17;100170;;;
74485;BMP280;62942;52.462;10.846;2023-11-21T01:03:17;100170;;;
74485;BMP280;62942;52.462;10.846;2023-11-21T01:04:27;100170;;;
74485;BMP280;62942;52.462;10.846;2023-11-21T01:05:37;100170;;;
74485;BMP280;62942;52.462;10.846;2023-11-21T01:06:47;100170;;;
74485;BMP280;62942;52.462;10.846;2023-11-21T01:07:47;100170;;;
74485;BMP280;62942;52.462;10.846;2023-11-21T01:08:57;100170;;;
74485;BMP280;62942;52.462;10.846;2023-11-21T01:10:08;100170;;;
74485;BMP280;62942;52.462;10.846;2023-11-21T01:11:07;100170;;;
74485;BMP280;62942;52.462;10.846;2023-11-21T01:12:17;100180;;;
74485;BMP280;62942;52.462;10.846;2023-11-21T01:13:27;100170;;;
74485;BMP280;62942;52.462;10.846;2023-11-21T01:14:37;100170;;;
74485;BMP280;62942;52.462;10.846;2023-11-21T01:15:47;100180;;;
74485;BMP280;62942;52.462;10.846;2023-11-21T01:16:57;100170;;;
74485;BMP280;62942;52.462;10.846;2023-11-21T01:18:07;100180;;;
74485;BMP280;62942;52.462;10.846;2023-11-21T01:19:17;100180;;;
74485;BMP280;62942;52.462;10.846;2023-11-21T01:20:17;100180;;;
74485;BMP280;62942;52.462;10.846;2023-11-21T01:21:27;100170;;;
74485;BMP280;62942;52.462;10.846;2023-11-21T01:22:28;100170;;;
74485;BMP280;62942;52.462;10.846;2023-11-21T01:23:37;100170;;;
74485;BMP280;62942;52.462;10.846;2023-11-21T01:24:47;100160;;;
74485;BMP280;62942;52.462;10.846;2023-11-21T01:25:57;100170;;;
74485;BMP280;62942;52.462;10.846;2023-11-21T01:27:07;100170;;;
74485;BMP280;62942;52.462;10.846;2023-11-21T01:28:17;100170;;;
74485;BMP280;62942;52.462;10.846;2023-11-21T01:29:27;100170;;;
74485;BMP280;62942;52.462;10.846;2023-11-21T01:30:37;100170;;;
74485;BMP280;62942;52.462;10.846;2023-11-21T01:31:47;100190;;;
74485;BMP280;62942;52.462;10.846;2023-11-21T01:32:57;100190;;;
74485;BMP280;62942;52.462;10.846;2023-11-21T01:34:07;100190;;;
74485;BMP280;62942;52.462;10.846;2023-11-21T01:35:07;100190;;;
74485;BMP280;62942;52.462;10.846;2023-11-21T01:36:17;100190;;;
74485;BMP280;62942;52.462;10.846;2023-11-21T01:37:27;100190;;;
74485;BMP280;62942;52.462;10.846;2023-11-21T01:38:37;100190;;;
74485;BMP280;62942;52.462;10.846;2023-11-21T01:39:37;100190;;;
74485;BMP280;62942;52.462;10.846;2023-11-21T01:40:37;100190;;;
74485;BMP280;62942;52.462;10.846;2023-11-21T01:41:47;100190;;;
74485;BMP280;62942;52.462;10.846;2023-11-21T01:42:57;100190;;;
74485;BMP280;62942;52.462;10.846;2023-11-21T01:43:57;100190;;;
74485;BMP280;62942;52.462;10.846;2023-11-21T01:45:08;100190;;;
74485;BMP280;62942;52.462;10.846;2023-11-21T01:46:08;100190;;;
74485;BMP280;62942;52.462;10.846;2023-11-21T01:47:17;100190;;;
74485;BMP280;62942;52.462;10.846;2023-11-21T01:48:27;100190;;;
74485;BMP280;62942;52.462;10.846;2023-11-21T01:49:37;100190;;;
74485;BMP280;62942;52.462;10.846;2023-11-21T01:50:47;100190;;;
74485;BMP280;62942;52.462;10.846;2023-11-21T01:51:47;100200;;;
74485;BMP280;62942;52.462;10.846;2023-11-21T01:52:57;100190;;;
74485;BMP280;62942;52.462;10.846;2023-11-21T01:53:57;100200;;;
74485;BMP280;62942;52.462;10.846;2023-11-21T01:55:08;100200;;;
74485;BMP280;62942;52.462;10.846;2023-11-21T01:56:17;100200;;;
74485;BMP280;62942;52.462;10.846;2023-11-21T01:57:18;100190;;;
74485;BMP280;62942;52.462;10.846;2023-11-21T01:58:27;100200;;;
74485;BMP280;62942;52.462;10.846;2023-11-21T01:59:27;100200;;;
74485;BMP280;62942;52.462;10.846;2023-11-21T02:00:37;100200;;;
74485;BMP280;62942;52.462;10.846;2023-11-21T02:01:47;100210;;;
74485;BMP280;62942;52.462;10.846;2023-11-21T02:02:57;100200;;;
74485;BMP280;62942;52.462;10.846;2023-11-21T02:03:57;100210;;;
74485;BMP280;62942;52.462;10.846;2023-11-21T02:04:57;100210;;;
74485;BMP280;62942;52.462;10.846;2023-11-21T02:06:07;100210;;;
74485;BMP280;62942;52.462;10.846;2023-11-21T02:07:17;100220;;;
74485;BMP280;62942;52.462;10.846;2023-11-21T02:08:27;100210;;;
74485;BMP280;62942;52.462;10.846;2023-11-21T02:09:37;100220;;;
74485;BMP280;62942;52.462;10.846;2023-11-21T02:10:47;100210;;;
74485;BMP280;62942;52.462;10.846;2023-11-21T02:11:57;100210;;;
74485;BMP280;62942;52.462;10.846;2023-11-21T02:12:57;100210;;;
74485;BMP280;62942;52.462;10.846;2023-11-21T02:13:58;100230;;;
74485;BMP280;62942;52.462;10.846;2023-11-21T02:15:08;100230;;;
74485;BMP280;62942;52.462;10.846;2023-11-21T02:16:07;100230;;;
74485;BMP280;62942;52.462;10.846;2023-11-21T02:17:07;100230;;;
74485;BMP280;62942;52.462;10.846;2023-11-21T02:18:17;100230;;;
74485;BMP280;62942;52.462;10.846;2023-11-21T02:19:27;100220;;;
74485;BMP280;62942;52.462;10.846;2023-11-21T02:20:27;100230;;;
74485;BMP280;62942;52.462;10.846;2023-11-21T02:21:27;100220;;;
74485;BMP280;62942;52.462;10.846;2023-11-21T02:22:37;100220;;;
74485;BMP280;62942;52.462;10.846;2023-11-21T02:23:37;100220;;;
74485;BMP280;62942;52.462;10.846;2023-11-21T02:24:47;100220;;;
74485;BMP280;62942;52.462;10.846;2023-11-21T02:25:47;100220;;;
74485;BMP280;62942;52.462;10.846;2023-11-21T02:26:57;100220;;;
74485;BMP280;62942;52.462;10.846;2023-11-21T02:27:58;100230;;;
74485;BMP280;62942;52.462;10.846;2023-11-21T02:28:57;100230;;;
74485;BMP280;62942;52.462;10.846;2023-11-21T02:30:07;100230;;;
74485;BMP280;62942;52.462;10.846;2023-11-21T02:31:07;100230;;;
74485;BMP280;62942;52.462;10.846;2023-11-21T02:32:17;100220;;;
74485;BMP280;62942;52.462;10.846;2023-11-21T02:33:27;100230;;;
74485;BMP280;62942;52.462;10.846;2023-11-21T02:34:37;100230;;;
74485;BMP280;62942;52.462;10.846;2023-11-21T02:35:47;100230;;;
74485;BMP280;62942;52.462;10.846;2023-11-21T02:36:57;100220;;;
74485;BMP280;62942;52.462;10.846;2023-11-21T02:38:07;100230;;;
74485;BMP280;62942;52.462;10.846;2023-11-21T02:39:07;100220;;;
74485;BMP280;62942;52.462;10.846;2023-11-21T02:40:17;100230;;;
74485;BMP280;62942;52.462;10.846;2023-11-21T02:41:27;100220;;;
74485;BMP280;62942;52.462;10.846;2023-11-21T02:42:27;100220;;;
74485;BMP280;62942;52.462;10.846;2023-11-21T02:43:27;100230;;;
74485;BMP280;62942;52.462;10.846;2023-11-21T02:44:37;100230;;;
74485;BMP280;62942;52.462;10.846;2023-11-21T02:45:47;100240;;;
74485;BMP280;62942;52.462;10.846;2023-11-21T02:46:57;100240;;;
74485;BMP280;62942;52.462;10.846;2023-11-21T02:47:57;100240;;;
74485;BMP280;62942;52.462;10.846;2023-11-21T02:49:07;100240;;;
74485;BMP280;62942;52.462;10.846;2023-11-21T02:50:07;100240;;;
74485;BMP280;62942;52.462;10.846;2023-11-21T02:51:07;100240;;;
74485;BMP280;62942;52.462;10.846;2023-11-21T02:52:17;100240;;;
74485;BMP280;62942;52.462;10.846;2023-11-21T02:53:17;100240;;;
74485;BMP280;62942;52.462;10.846;2023-11-21T02:54:27;100240;;;
74485;BMP280;62942;52.462;10.846;2023-11-21T02:55:37;100240;;;
74485;BMP280;62942;52.462;10.846;2023-11-21T02:56:37;100240;;;
74485;BMP280;62942;52.462;10.846;2023-11-21T02:57:47;100240;;;
74485;BMP280;62942;52.462;10.846;2023-11-21T02:58:47;100240;;;
74485;BMP280;62942;52.462;10.846;2023-11-21T02:59:57;100240;;;
74485;BMP280;62942;52.462;10.846;2023-11-21T03:01:07;100250;;;
74485;BMP280;62942;52.462;10.846;2023-11-21T03:02:17;100240;;;
74485;BMP280;62942;52.462;10.846;2023-11-21T03:03:27;100240;;;
74485;BMP280;62942;52.462;10.846;2023-11-21T03:04:27;100230;;;
74485;BMP280;62942;52.462;10.846;2023-11-21T03:05:37;100230;;;
74485;BMP280;62942;52.462;10.846;2023-11-21T03:06:47;100240;;;
74485;BMP280;62942;52.462;10.846;2023-11-21T03:07:47;100240;;;
74485;BMP280;62942;52.462;10.846;2023-11-21T03:08:57;100240;;;
74485;BMP280;62942;52.462;10.846;2023-11-21T03:10:08;100240;;;
74485;BMP280;62942;52.462;10.846;2023-11-21T03:11:07;100250;;;
74485;BMP280;62942;52.462;10.846;2023-11-21T03:12:17;100250;;;
74485;BMP280;62942;52.462;10.846;2023-11-21T03:13:27;100250;;;
74485;BMP280;62942;52.462;10.846;2023-11-21T03:14:27;100250;;;
74485;BMP280;62942;52.462;10.846;2023-11-21T03:15:37;100250;;;
74485;BMP280;62942;52.462;10.846;2023-11-21T03:16:47;100250;;;
74485;BMP280;62942;52.462;10.846;2023-11-21T03:17:57;100260;;;
74485;BMP280;62942;52.462;10.846;2023-11-21T03:19:07;100260;;;
74485;BMP280;62942;52.462;10.846;2023-11-21T03:20:07;100250;;;
74485;BMP280;62942;52.462;10.846;2023-11-21T03:21:17;100260;;;
74485;BMP280;62942;52.462;10.846;2023-11-21T03:22:17;100260;;;
74485;BMP280;62942;52.462;10.846;2023-11-21T03:23:27;100260;;;
74485;BMP280;62942;52.462;10.846;2023-11-21T03:24:27;100260;;;
74485;BMP280;62942;52.462;10.846;2023-11-21T03:25:37;100260;;;
74485;BMP280;62942;52.462;10.846;2023-11-21T03:26:47;100260;;;
74485;BMP280;62942;52.462;10.846;2023-11-21T03:27:57;100260;;;
74485;BMP280;62942;52.462;10.846;2023-11-21T03:29:07;100260;;;
74485;BMP280;62942;52.462;10.846;2023-11-21T03:30:08;100260;;;
74485;BMP280;62942;52.462;10.846;2023-11-21T03:31:17;100260;;;
74485;BMP280;62942;52.462;10.846;2023-11-21T03:32:17;100270;;;
74485;BMP280;62942;52.462;10.846;2023-11-21T03:33:27;100260;;;
74485;BMP280;62942;52.462;10.846;2023-11-21T03:34:49;100260;;;
74485;BMP280;62942;52.462;10.846;2023-11-21T03:35:47;100270;;;
74485;BMP280;62942;52.462;10.846;2023-11-21T03:36:57;100270;;;
74485;BMP280;62942;52.462;10.846;2023-11-21T03:38:07;100270;;;
74485;BMP280;62942;52.462;10.846;2023-11-21T03:39:07;100270;;;
74485;BMP280;62942;52.462;10.846;2023-11-21T03:40:17;100270;;;
74485;BMP280;62942;52.462;10.846;2023-11-21T03:41:17;100270;;;
74485;BMP280;62942;52.462;10.846;2023-11-21T03:42:27;100270;;;
74485;BMP280;62942;52.462;10.846;2023-11-21T03:43:37;100280;;;
74485;BMP280;62942;52.462;10.846;2023-11-21T03:44:37;100270;;;
74485;BMP280;62942;52.462;10.846;2023-11-21T03:45:37;100280;;;
74485;BMP280;62942;52.462;10.846;2023-11-21T03:46:47;100280;;;
74485;BMP280;62942;52.462;10.846;2023-11-21T03:47:57;100280;;;
74485;BMP280;62942;52.462;10.846;2023-11-21T03:48:57;100280;;;
74485;BMP280;62942;52.462;10.846;2023-11-21T03:50:07;100290;;;
74485;BMP280;62942;52.462;10.846;2023-11-21T03:51:17;100290;;;
74485;BMP280;62942;52.462;10.846;2023-11-21T03:52:27;100290;;;
74485;BMP280;62942;52.462;10.846;2023-11-21T03:53:37;100290;;;
74485;BMP280;62942;52.462;10.846;2023-11-21T03:54:37;100290;;;
74485;BMP280;62942;52.462;10.846;2023-11-21T03:55:47;100290;;;
74485;BMP280;62942;52.462;10.846;2023-11-21T03:56:57;100290;;;
74485;BMP280;62942;52.462;10.846;2023-11-21T03:58:07;100290;;;
74485;BMP280;62942;52.462;10.846;2023-11-21T03:59:17;100290;;;
74485;BMP280;62942;52.462;10.846;2023-11-21T04:00:27;100290;;;
74485;BMP280;62942;52.462;10.846;2023-11-21T04:01:37;100300;;;
74485;BMP280;62942;52.462;10.846;2023-11-21T04:02:37;100300;;;
74485;BMP280;62942;52.462;10.846;2023-11-21T04:03:47;100300;;;
74485;BMP280;62942;52.462;10.846;2023-11-21T04:04:57;100300;;;
74485;BMP280;62942;52.462;10.846;2023-11-21T04:06:07;100300;;;
74485;BMP280;62942;52.462;10.846;2023-11-21T04:07:17;100310;;;
74485;BMP280;62942;52.462;10.846;2023-11-21T04:08:27;100310;;;
74485;BMP280;62942;52.462;10.846;2023-11-21T04:09:27;100310;;;
74485;BMP280;62942;52.462;10.846;2023-11-21T04:10:37;100310;;;
74485;BMP280;62942;52.462;10.846;2023-11-21T04:11:47;100320;;;
74485;BMP280;62942;52.462;10.846;2023-11-21T04:12:47;100320;;;
74485;BMP280;62942;52.462;10.846;2023-11-21T04:13:47;100320;;;
74485;BMP280;62942;52.462;10.846;2023-11-21T04:14:57;100320;;;
74485;BMP280;62942;52.462;10.846;2023-11-21T04:16:07;100320;;;
74485;BMP280;62942;52.462;10.846;2023-11-21T04:17:07;100320;;;
74485;BMP280;62942;52.462;10.846;2023-11-21T04:18:17;100320;;;
74485;BMP280;62942;52.462;10.846;2023-11-21T04:19:17;100320;;;
74485;BMP280;62942;52.462;10.846;2023-11-21T04:20:17;100330;;;
74485;BMP280;62942;52.462;10.846;2023-11-21T04:21:27;100330;;;
74485;BMP280;62942;52.462;10.846;2023-11-21T04:22:37;100330;;;
74485;BMP280;62942;52.462;10.846;2023-11-21T04:23:37;100330;;;
74485;BMP280;62942;52.462;10.846;2023-11-21T04:24:47;100330;;;
74485;BMP280;62942;52.462;10.846;2023-11-21T04:25:57;100340;;;
74485;BMP280;62942;52.462;10.846;2023-11-21T04:27:07;100340;;;
74485;BMP280;62942;52.462;10.846;2023-11-21T04:28:07;100340;;;
74485;BMP280;62942;52.462;10.846;2023-11-21T04:29:07;100350;;;
74485;BMP280;62942;52.462;10.846;2023-11-21T04:30:17;100340;;;
74485;BMP280;62942;52.462;10.846;2023-11-21T04:31:27;100350;;;
74485;BMP280;62942;52.462;10.846;2023-11-21T04:32:37;100350;;;
74485;BMP280;62942;52.462;10.846;2023-11-21T04:33:37;100350;;;
74485;BMP280;62942;52.462;10.846;2023-11-21T04:34:47;100360;;;
74485;BMP280;62942;52.462;10.846;2023-11-21T04:35:47;100350;;;
74485;BMP280;62942;52.462;10.846;2023-11-21T04:36:57;100360;;;
74485;BMP280;62942;52.462;10.846;2023-11-21T04:38:07;100360;;;
74485;BMP280;62942;52.462;10.846;2023-11-21T04:39:07;100370;;;
74485;BMP280;62942;52.462;10.846;2023-11-21T04:40:17;100360;;;
74485;BMP280;62942;52.462;10.846;2023-11-21T04:41:27;100360;;;
74485;BMP280;62942;52.462;10.846;2023-11-21T04:42:37;100360;;;
74485;BMP280;62942;52.462;10.846;2023-11-21T04:43:47;100370;;;
74485;BMP280;62942;52.462;10.846;2023-11-21T04:44:57;100360;;;
74485;BMP280;62942;52.462;10.846;2023-11-21T04:46:07;100360;;;
74485;BMP280;62942;52.462;10.846;2023-11-21T04:47:17;100360;;;
74485;BMP280;62942;52.462;10.846;2023-11-21T04:48:27;100350;;;
74485;BMP280;62942;52.462;10.846;2023-11-21T04:49:27;100350;;;
74485;BMP280;62942;52.462;10.846;2023-11-21T04:50:27;100360;;;
74485;BMP280;62942;52.462;10.846;2023-11-21T04:51:27;100360;;;
74485;BMP280;62942;52.462;10.846;2023-11-21T04:52:37;100360;;;
74485;BMP280;62942;52.462;10.846;2023-11-21T04:53:37;100360;;;
74485;BMP280;62942;52.462;10.846;2023-11-21T04:54:47;100360;;;
74485;BMP280;62942;52.462;10.846;2023-11-21T04:55:57;100360;;;
74485;BMP280;62942;52.462;10.846;2023-11-21T04:57:07;100380;;;
74485;BMP280;62942;52.462;10.846;2023-11-21T04:58:07;100380;;;
74485;BMP280;62942;52.462;10.846;2023-11-21T04:59:17;100380;;;
74485;BMP280;62942;52.462;10.846;2023-11-21T05:00:17;100380;;;
74485;BMP280;62942;52.462;10.846;2023-11-21T05:01:27;100380;;;
74485;BMP280;62942;52.462;10.846;2023-11-21T05:02:37;100380;;;
74485;BMP280;62942;52.462;10.846;2023-11-21T05:03:47;100390;;;
74485;BMP280;62942;52.462;10.846;2023-11-21T05:04:47;100380;;;
74485;BMP280;62942;52.462;10.846;2023-11-21T05:05:57;100390;;;
74485;BMP280;62942;52.462;10.846;2023-11-21T05:07:07;100390;;;
74485;BMP280;62942;52.462;10.846;2023-11-21T05:08:17;100400;;;
74485;BMP280;62942;52.462;10.846;2023-11-21T05:09:27;100400;;;
74485;BMP280;62942;52.462;10.846;2023-11-21T05:10:37;100400;;;
74485;BMP280;62942;52.462;10.846;2023-11-21T05:11:47;100410;;;
74485;BMP280;62942;52.462;10.846;2023-11-21T05:12:57;100410;;;
74485;BMP280;62942;52.462;10.846;2023-11-21T05:14:07;100420;;;
74485;BMP280;62942;52.462;10.846;2023-11-21T05:15:17;100420;;;
74485;BMP280;62942;52.462;10.846;2023-11-21T05:16:27;100420;;;
74485;BMP280;62942;52.462;10.846;2023-11-21T05:17:37;100410;;;
74485;BMP280;62942;52.462;10.846;2023-11-21T05:18:47;100410;;;
74485;BMP280;62942;52.462;10.846;2023-11-21T05:19:57;100410;;;
74485;BMP280;62942;52.462;10.846;2023-11-21T05:21:07;100410;;;
74485;BMP280;62942;52.462;10.846;2023-11-21T05:22:17;100410;;;
74485;BMP280;62942;52.462;10.846;2023-11-21T05:23:17;100420;;;
74485;BMP280;62942;52.462;10.846;2023-11-21T05:24:27;100420;;;
74485;BMP280;62942;52.462;10.846;2023-11-21T05:25:37;100420;;;
74485;BMP280;62942;52.462;10.846;2023-11-21T05:26:37;100420;;;
74485;BMP280;62942;52.462;10.846;2023-11-21T05:27:47;100430;;;
74485;BMP280;62942;52.462;10.846;2023-11-21T05:28:57;100420;;;
74485;BMP280;62942;52.462;10.846;2023-11-21T05:29:57;100430;;;
74485;BMP280;62942;52.462;10.846;2023-11-21T05:31:07;100430;;;
74485;BMP280;62942;52.462;10.846;2023-11-21T05:32:17;100430;;;
74485;BMP280;62942;52.462;10.846;2023-11-21T05:33:27;100440;;;
74485;BMP280;62942;52.462;10.846;2023-11-21T05:34:37;100440;;;
74485;BMP280;62942;52.462;10.846;2023-11-21T05:35:47;100450;;;
74485;BMP280;62942;52.462;10.846;2023-11-21T05:36:57;100450;;;
74485;BMP280;62942;52.462;10.846;2023-11-21T05:38:07;100450;;;
74485;BMP280;62942;52.462;10.846;2023-11-21T05:39:17;100450;;;
74485;BMP280;62942;52.462;10.846;2023-11-21T05:40:27;100460;;;
74485;BMP280;62942;52.462;10.846;2023-11-21T05:41:37;100460;;;
74485;BMP280;62942;52.462;10.846;2023-11-21T05:42:47;100460;;;
74485;BMP280;62942;52.462;10.846;2023-11-21T05:43:57;100460;;;
74485;BMP280;62942;52.462;10.846;2023-11-21T05:45:07;100460;;;
74485;BMP280;62942;52.462;10.846;2023-11-21T05:46:17;100460;;;
74485;BMP280;62942;52.462;10.846;2023-11-21T05:47:17;100460;;;
74485;BMP280;62942;52.462;10.846;2023-11-21T05:48:27;100460;;;
74485;BMP280;62942;52.462;10.846;2023-11-21T05:49:27;100460;;;
74485;BMP280;62942;52.462;10.846;2023-11-21T05:50:37;100470;;;
74485;BMP280;62942;52.462;10.846;2023-11-21T05:51:47;100460;;;
74485;BMP280;62942;52.462;10.846;2023-11-21T05:52:47;100470;;;
74485;BMP280;62942;52.462;10.846;2023-11-21T05:53:47;100470;;;
74485;BMP280;62942;52.462;10.846;2023-11-21T05:54:57;100470;;;
74485;BMP280;62942;52.462;10.846;2023-11-21T05:56:07;100470;;;
74485;BMP280;62942;52.462;10.846;2023-11-21T05:57:17;100470;;;
74485;BMP280;62942;52.462;10.846;2023-11-21T05:58:27;100480;;;
74485;BMP280;62942;52.462;10.846;2023-11-21T05:59:27;100470;;;
74485;BMP280;62942;52.462;10.846;2023-11-21T06:00:27;100480;;;
74485;BMP280;62942;52.462;10.846;2023-11-21T06:01:37;100470;;;
74485;BMP280;62942;52.462;10.846;2023-11-21T06:02:47;100480;;;
74485;BMP280;62942;52.462;10.846;2023-11-21T06:03:57;100470;;;
74485;BMP280;62942;52.462;10.846;2023-11-21T06:05:07;100480;;;
74485;BMP280;62942;52.462;10.846;2023-11-21T06:06:17;100490;;;
74485;BMP280;62942;52.462;10.846;2023-11-21T06:07:27;100490;;;
74485;BMP280;62942;52.462;10.846;2023-11-21T06:08:27;100480;;;
74485;BMP280;62942;52.462;10.846;2023-11-21T06:09:27;100480;;;
74485;BMP280;62942;52.462;10.846;2023-11-21T06:10:37;100480;;;
74485;BMP280;62942;52.462;10.846;2023-11-21T06:11:47;100490;;;
74485;BMP280;62942;52.462;10.846;2023-11-21T06:12:57;100490;;;
74485;BMP280;62942;52.462;10.846;2023-11-21T06:14:07;100490;;;
74485;BMP280;62942;52.462;10.846;2023-11-21T06:15:17;100500;;;
74485;BMP280;62942;52.462;10.846;2023-11-21T06:16:27;100500;;;
74485;BMP280;62942;52.462;10.846;2023-11-21T06:17:27;100480;;;
74485;BMP280;62942;52.462;10.846;2023-11-21T06:18:27;100480;;;
74485;BMP280;62942;52.462;10.846;2023-11-21T06:19:37;100490;;;
74485;BMP280;62942;52.462;10.846;2023-11-21T06:20:47;100490;;;
74485;BMP280;62942;52.462;10.846;2023-11-21T06:21:47;100500;;;
74485;BMP280;62942;52.462;10.846;2023-11-21T06:22:57;100490;;;
74485;BMP280;62942;52.462;10.846;2023-11-21T06:23:57;100500;;;
74485;BMP280;62942;52.462;10.846;2023-11-21T06:25:07;100500;;;
74485;BMP280;62942;52.462;10.846;2023-11-21T06:26:07;100500;;;
74485;BMP280;62942;52.462;10.846;2023-11-21T06:27:17;100500;;;
74485;BMP280;62942;52.462;10.846;2023-11-21T06:28:28;100510;;;
74485;BMP280;62942;52.462;10.846;2023-11-21T06:29:37;100510;;;
74485;BMP280;62942;52.462;10.846;2023-11-21T06:30:47;100510;;;
74485;BMP280;62942;52.462;10.846;2023-11-21T06:31:57;100520;;;
74485;BMP280;62942;52.462;10.846;2023-11-21T06:32:57;100520;;;
74485;BMP280;62942;52.462;10.846;2023-11-21T06:34:07;100520;;;
74485;BMP280;62942;52.462;10.846;2023-11-21T06:35:07;100520;;;
74485;BMP280;62942;52.462;10.846;2023-11-21T06:36:17;100520;;;
74485;BMP280;62942;52.462;10.846;2023-11-21T06:37:27;100520;;;
74485;BMP280;62942;52.462;10.846;2023-11-21T06:38:37;100520;;;
74485;BMP280;62942;52.462;10.846;2023-11-21T06:39:47;100530;;;
74485;BMP280;62942;52.462;10.846;2023-11-21T06:40:57;100530;;;
74485;BMP280;62942;52.462;10.846;2023-11-21T06:42:07;100530;;;
74485;BMP280;62942;52.462;10.846;2023-11-21T06:43:07;100530;;;
74485;BMP280;62942;52.462;10.846;2023-11-21T06:44:17;100530;;;
74485;BMP280;62942;52.462;10.846;2023-11-21T06:45:27;100530;;;
74485;BMP280;62942;52.462;10.846;2023-11-21T06:46:37;100530;;;
74485;BMP280;62942;52.462;10.846;2023-11-21T06:47:47;100540;;;
74485;BMP280;62942;52.462;10.846;2023-11-21T06:48:57;100540;;;
74485;BMP280;62942;52.462;10.846;2023-11-21T06:50:07;100540;;;
74485;BMP280;62942;52.462;10.846;2023-11-21T06:51:07;100540;;;
74485;BMP280;62942;52.462;10.846;2023-11-21T06:52:17;100540;;;
74485;BMP280;62942;52.462;10.846;2023-11-21T06:53:27;100560;;;
74485;BMP280;62942;52.462;10.846;2023-11-21T06:54:37;100560;;;
74485;BMP280;62942;52.462;10.846;2023-11-21T06:55:47;100560;;;
74485;BMP280;62942;52.462;10.846;2023-11-21T06:56:57;100560;;;
74485;BMP280;62942;52.462;10.846;2023-11-21T06:57:57;100570;;;
74485;BMP280;62942;52.462;10.846;2023-11-21T06:58:57;100570;;;
74485;BMP280;62942;52.462;10.846;2023-11-21T07:00:07;100570;;;
74485;BMP280;62942;52.462;10.846;2023-11-21T07:01:17;100580;;;
74485;BMP280;62942;52.462;10.846;2023-11-21T07:02:27;100580;;;